Forney's Hourly Summary for Monday, March 13, 2017
Hour Temp
(f)
RH
(%)
Solar Rad.
(MJ/m2)
Rainfall
(in)
Wind
(mph)
3/13/2017 12:00 AM 46 80 0 0 1.49
3/13/2017 1:00 AM 46 80 0 0 0.46
3/13/2017 2:00 AM 46 81 0 0 0.04
3/13/2017 3:00 AM 47 82 0 0 0.3
3/13/2017 4:00 AM 48 81 0 0 1.29
3/13/2017 5:00 AM 47 81 0 0.05 0.59
3/13/2017 6:00 AM 46 99 0 0.05 0.35
3/13/2017 7:00 AM 47 99 0 0 2.64
3/13/2017 8:00 AM 48 99 0 0 0.9
3/13/2017 9:00 AM 48 95 0.08 0 1.74
3/13/2017 10:00 AM 49 93 0.08 0.01 0.57
3/13/2017 11:00 AM 50 78 0.93 0 3.31
3/13/2017 12:00 PM 52 72 0.98 0 5.49
3/13/2017 1:00 PM 52 70 0.95 0 6.25
3/13/2017 2:00 PM 54 61 1.9 0 6.68
3/13/2017 3:00 PM 58 54 2.73 0 5.28
3/13/2017 4:00 PM 61 42 2.4 0 5.77
3/13/2017 5:00 PM 62 37 1.88 0 7.32
3/13/2017 6:00 PM 61 35 1.13 0 6.16
3/13/2017 7:00 PM 59 35 0.49 0 6.87
3/13/2017 8:00 PM 54 33 0.03 0 7.42
3/13/2017 9:00 PM 51 35 0 0 5.58
3/13/2017 10:00 PM 50 35 0 0 5.9
3/13/2017 11:00 PM 48 39 0 0 5.17
Data Summary 51 66 13.58 0.11 3.65